createdAt,value
2022-12-14T05:56:49.310Z,-5.11
2022-12-14T05:57:50.305Z,-5.08
2022-12-14T05:58:50.272Z,-5.12
2022-12-14T05:59:50.296Z,-5.12
2022-12-14T06:00:50.383Z,-5.17
2022-12-14T06:01:50.615Z,-5.19
2022-12-14T06:02:50.534Z,-5.19
2022-12-14T06:03:50.255Z,-5.17
2022-12-14T06:04:50.296Z,-5.17
2022-12-14T06:05:53.843Z,-5.17
2022-12-14T06:10:55.589Z,-5.14
2022-12-14T06:11:56.852Z,-5.17
2022-12-14T06:13:15.883Z,-5.17
2022-12-14T06:13:54.881Z,-5.16
2022-12-14T06:18:46.856Z,-5.08
2022-12-14T06:19:50.314Z,-5.03
2022-12-14T06:20:47.890Z,-5.05
2022-12-14T06:21:47.964Z,-5.04
2022-12-14T06:22:48.016Z,-4.98
2022-12-14T06:23:47.837Z,-4.97
2022-12-14T06:24:47.803Z,-4.94
2022-12-14T06:25:47.782Z,-4.95
2022-12-14T06:26:48.126Z,-4.97
2022-12-14T06:27:47.811Z,-4.91
2022-12-14T06:28:47.810Z,-4.93
2022-12-14T06:32:04.771Z,-4.95
2022-12-14T06:33:05.642Z,-4.95
2022-12-14T06:34:06.251Z,-4.87
2022-12-14T06:35:05.695Z,-4.83
2022-12-14T06:36:05.636Z,-4.85
2022-12-14T06:37:05.614Z,-4.80
2022-12-14T06:38:05.580Z,-4.82
2022-12-14T06:39:05.580Z,-4.83
2022-12-14T06:40:05.579Z,-4.83
2022-12-14T06:41:05.566Z,-4.82
2022-12-14T06:42:05.547Z,-4.85
2022-12-14T06:43:05.542Z,-4.87
2022-12-14T06:44:05.600Z,-4.83
2022-12-14T06:45:05.511Z,-4.79
2022-12-14T06:46:09.873Z,-4.76
2022-12-14T06:47:05.508Z,-4.75
2022-12-14T06:48:05.513Z,-4.71
2022-12-14T06:49:05.480Z,-4.77
2022-12-14T15:24:30.686Z,-2.82
2022-12-14T15:25:31.562Z,-2.90
2022-12-14T15:26:31.601Z,-3.04
2022-12-14T15:27:31.473Z,-3.07
2022-12-14T15:28:31.527Z,-3.15
2022-12-14T15:29:31.478Z,-3.25
2022-12-14T15:30:31.529Z,-3.35
2022-12-14T15:31:31.472Z,-3.46
2022-12-14T15:32:31.364Z,-3.53
2022-12-14T15:33:32.058Z,-3.64
2022-12-14T15:34:31.335Z,-3.70
2022-12-14T15:35:31.371Z,-3.76
2022-12-14T15:36:31.479Z,-3.83
2022-12-14T15:37:31.379Z,-3.91
2022-12-14T16:19:59.164Z,-5.03
2022-12-14T16:20:46.721Z,-5.05
2022-12-14T16:21:46.671Z,-5.11
2022-12-14T16:22:46.753Z,-5.12
2022-12-14T16:23:46.845Z,-5.19
2022-12-14T16:24:46.678Z,-5.25
2022-12-14T16:25:46.630Z,-5.26
2022-12-14T16:26:46.635Z,-5.30
2022-12-14T16:27:46.620Z,-5.30
2022-12-14T16:28:48.214Z,-5.31
2022-12-14T16:29:49.869Z,-5.33
2022-12-14T16:30:46.599Z,-5.27
2022-12-14T16:31:46.602Z,-5.30
2022-12-14T16:32:50.024Z,-5.31
2022-12-14T16:33:50.463Z,-5.31
2022-12-14T16:34:46.572Z,-5.34
2022-12-14T16:35:46.590Z,-5.34
2022-12-14T16:37:08.075Z,-5.37
2022-12-14T16:37:46.527Z,-5.43
2022-12-14T16:38:46.549Z,-5.44
2022-12-14T16:39:46.504Z,-5.49
2022-12-14T16:40:46.483Z,-5.45
2022-12-14T16:41:46.469Z,-5.49
2022-12-14T16:42:46.483Z,-5.54
2022-12-14T16:43:46.450Z,-5.55
2022-12-14T16:44:46.451Z,-5.59
2022-12-14T16:45:48.223Z,-5.61
2022-12-14T16:46:46.521Z,-5.62
2022-12-14T16:47:46.404Z,-5.65
2022-12-14T16:48:46.366Z,-5.69
2022-12-14T16:49:46.396Z,-5.65
2022-12-14T16:50:57.445Z,-5.69
2022-12-14T16:52:06.131Z,-5.70
2022-12-14T16:52:46.367Z,-5.72
2022-12-14T16:53:46.358Z,-5.79
2022-12-14T16:54:46.378Z,-5.82
2022-12-14T16:57:55.156Z,-5.94
2022-12-14T16:58:56.180Z,-5.97
2022-12-14T16:59:56.132Z,-5.98
2022-12-14T17:00:56.095Z,-6.00
2022-12-14T17:01:56.903Z,-6.05
2022-12-14T17:02:56.236Z,-6.09
2022-12-14T17:03:56.184Z,-6.09
2022-12-14T17:05:06.976Z,-6.09
2022-12-14T17:43:04.751Z,-6.63
2022-12-14T17:55:36.662Z,-6.81
2022-12-14T17:56:37.849Z,-6.87
2022-12-14T18:01:37.779Z,-6.88
2022-12-14T18:02:28.205Z,-6.90
2022-12-14T21:16:54.213Z,-8.31
2022-12-14T21:17:55.309Z,-8.34
2022-12-14T21:18:55.059Z,-8.32
